sensor_id;sensor_type;location;lat;lon;timestamp;temperature;humidity
8105;DHT22;4095;48.942;9.104;2024-01-15T00:01:26;2.40;99.00
8105;DHT22;4095;48.942;9.104;2024-01-15T00:03:52;2.30;99.10
8105;DHT22;4095;48.942;9.104;2024-01-15T00:06:17;2.20;99.40
8105;DHT22;4095;48.942;9.104;2024-01-15T00:08:43;2.10;99.50
8105;DHT22;4095;48.942;9.104;2024-01-15T00:11:08;2.10;99.60
8105;DHT22;4095;48.942;9.104;2024-01-15T00:13:34;2.10;99.70
8105;DHT22;4095;48.942;9.104;2024-01-15T00:15:59;2.10;99.70
8105;DHT22;4095;48.942;9.104;2024-01-15T00:18:25;2.00;99.90
8105;DHT22;4095;48.942;9.104;2024-01-15T00:20:50;2.00;99.90
8105;DHT22;4095;48.942;9.104;2024-01-15T00:23:16;1.90;99.90
8105;DHT22;4095;48.942;9.104;2024-01-15T00:25:41;1.90;99.90
8105;DHT22;4095;48.942;9.104;2024-01-15T00:28:07;1.80;99.90
8105;DHT22;4095;48.942;9.104;2024-01-15T00:30:32;1.80;99.90
8105;DHT22;4095;48.942;9.104;2024-01-15T00:32:58;1.80;99.90
8105;DHT22;4095;48.942;9.104;2024-01-15T00:35:23;1.80;99.90
8105;DHT22;4095;48.942;9.104;2024-01-15T00:37:49;1.80;99.90
8105;DHT22;4095;48.942;9.104;2024-01-15T00:40:15;1.80;99.90
8105;DHT22;4095;48.942;9.104;2024-01-15T00:42:40;1.90;99.90
8105;DHT22;4095;48.942;9.104;2024-01-15T00:45:06;1.90;99.90
8105;DHT22;4095;48.942;9.104;2024-01-15T00:47:33;1.90;99.90
8105;DHT22;4095;48.942;9.104;2024-01-15T00:49:59;1.90;99.90
8105;DHT22;4095;48.942;9.104;2024-01-15T00:52:24;2.00;99.90
8105;DHT22;4095;48.942;9.104;2024-01-15T00:54:50;2.10;99.90
8105;DHT22;4095;48.942;9.104;2024-01-15T00:57:15;2.10;99.90
8105;DHT22;4095;48.942;9.104;2024-01-15T00:59:41;2.10;99.90
8105;DHT22;4095;48.942;9.104;2024-01-15T01:02:07;2.20;99.90
8105;DHT22;4095;48.942;9.104;2024-01-15T01:04:32;2.10;99.90
8105;DHT22;4095;48.942;9.104;2024-01-15T01:06:58;2.10;99.90
8105;DHT22;4095;48.942;9.104;2024-01-15T01:09:23;2.10;99.90
8105;DHT22;4095;48.942;9.104;2024-01-15T01:11:49;2.20;99.90
8105;DHT22;4095;48.942;9.104;2024-01-15T01:14:15;2.20;99.90
8105;DHT22;4095;48.942;9.104;2024-01-15T01:16:40;2.20;99.90
8105;DHT22;4095;48.942;9.104;2024-01-15T01:19:06;2.20;99.90
8105;DHT22;4095;48.942;9.104;2024-01-15T01:21:33;2.30;99.90
8105;DHT22;4095;48.942;9.104;2024-01-15T01:23:59;2.30;99.90
8105;DHT22;4095;48.942;9.104;2024-01-15T01:26:24;2.30;99.90
8105;DHT22;4095;48.942;9.104;2024-01-15T01:28:49;2.30;99.90
8105;DHT22;4095;48.942;9.104;2024-01-15T01:31:15;2.30;99.90
8105;DHT22;4095;48.942;9.104;2024-01-15T01:33:42;2.40;99.90
8105;DHT22;4095;48.942;9.104;2024-01-15T01:36:08;2.50;99.90
8105;DHT22;4095;48.942;9.104;2024-01-15T01:38:35;2.50;99.90
8105;DHT22;4095;48.942;9.104;2024-01-15T01:41:01;2.50;99.90
8105;DHT22;4095;48.942;9.104;2024-01-15T01:43:26;2.50;99.90
8105;DHT22;4095;48.942;9.104;2024-01-15T01:45:52;2.40;99.90
8105;DHT22;4095;48.942;9.104;2024-01-15T01:48:18;2.40;99.90
8105;DHT22;4095;48.942;9.104;2024-01-15T01:50:44;2.50;99.90
8105;DHT22;4095;48.942;9.104;2024-01-15T01:53:09;2.40;99.90
8105;DHT22;4095;48.942;9.104;2024-01-15T01:55:36;2.40;99.90
8105;DHT22;4095;48.942;9.104;2024-01-15T01:58:03;2.40;99.90
8105;DHT22;4095;48.942;9.104;2024-01-15T02:00:30;2.40;99.90
8105;DHT22;4095;48.942;9.104;2024-01-15T02:02:56;2.50;99.90
8105;DHT22;4095;48.942;9.104;2024-01-15T02:05:22;2.50;99.90
8105;DHT22;4095;48.942;9.104;2024-01-15T02:07:48;2.60;99.90
8105;DHT22;4095;48.942;9.104;2024-01-15T02:10:14;2.70;99.90
8105;DHT22;4095;48.942;9.104;2024-01-15T02:12:40;2.80;99.90
8105;DHT22;4095;48.942;9.104;2024-01-15T02:15:05;2.90;99.90
8105;DHT22;4095;48.942;9.104;2024-01-15T02:17:31;2.90;99.90
8105;DHT22;4095;48.942;9.104;2024-01-15T02:19:57;3.00;99.90
8105;DHT22;4095;48.942;9.104;2024-01-15T02:22:22;3.10;99.90
8105;DHT22;4095;48.942;9.104;2024-01-15T02:24:48;3.20;99.90
8105;DHT22;4095;48.942;9.104;2024-01-15T02:27:14;3.40;99.90
8105;DHT22;4095;48.942;9.104;2024-01-15T02:29:40;3.50;99.90
8105;DHT22;4095;48.942;9.104;2024-01-15T02:32:06;3.60;99.90
8105;DHT22;4095;48.942;9.104;2024-01-15T02:34:34;3.60;99.90
8105;DHT22;4095;48.942;9.104;2024-01-15T02:37:00;3.70;99.90
8105;DHT22;4095;48.942;9.104;2024-01-15T02:39:26;3.70;99.90
8105;DHT22;4095;48.942;9.104;2024-01-15T02:41:51;3.60;99.90
8105;DHT22;4095;48.942;9.104;2024-01-15T02:44:17;3.60;99.90
8105;DHT22;4095;48.942;9.104;2024-01-15T02:46:42;3.60;99.90
8105;DHT22;4095;48.942;9.104;2024-01-15T02:49:08;3.60;99.90
8105;DHT22;4095;48.942;9.104;2024-01-15T02:51:33;3.60;99.90
8105;DHT22;4095;48.942;9.104;2024-01-15T02:53:59;3.70;99.90
8105;DHT22;4095;48.942;9.104;2024-01-15T02:56:25;3.70;99.90
8105;DHT22;4095;48.942;9.104;2024-01-15T02:58:50;3.60;99.90
8105;DHT22;4095;48.942;9.104;2024-01-15T03:01:18;3.60;99.90
8105;DHT22;4095;48.942;9.104;2024-01-15T03:03:44;3.50;99.90
8105;DHT22;4095;48.942;9.104;2024-01-15T03:06:10;3.50;99.90
8105;DHT22;4095;48.942;9.104;2024-01-15T03:08:35;3.50;99.90
8105;DHT22;4095;48.942;9.104;2024-01-15T03:11:01;3.40;99.90
8105;DHT22;4095;48.942;9.104;2024-01-15T03:13:27;3.50;99.90
8105;DHT22;4095;48.942;9.104;2024-01-15T03:15:52;3.50;99.90
8105;DHT22;4095;48.942;9.104;2024-01-15T03:18:18;3.50;99.90
8105;DHT22;4095;48.942;9.104;2024-01-15T03:20:43;3.50;99.90
8105;DHT22;4095;48.942;9.104;2024-01-15T03:23:09;3.60;99.90
8105;DHT22;4095;48.942;9.104;2024-01-15T03:25:34;3.60;99.90
8105;DHT22;4095;48.942;9.104;2024-01-15T03:28:00;3.70;99.90
8105;DHT22;4095;48.942;9.104;2024-01-15T03:30:25;3.70;99.90
8105;DHT22;4095;48.942;9.104;2024-01-15T03:32:51;3.70;99.90
8105;DHT22;4095;48.942;9.104;2024-01-15T03:35:16;3.70;99.90
8105;DHT22;4095;48.942;9.104;2024-01-15T03:37:42;3.70;99.90
8105;DHT22;4095;48.942;9.104;2024-01-15T03:40:08;3.70;99.90
8105;DHT22;4095;48.942;9.104;2024-01-15T03:42:34;3.70;99.90
8105;DHT22;4095;48.942;9.104;2024-01-15T03:44:59;3.70;99.90
8105;DHT22;4095;48.942;9.104;2024-01-15T03:47:25;3.70;99.90
8105;DHT22;4095;48.942;9.104;2024-01-15T03:49:51;3.80;99.90
8105;DHT22;4095;48.942;9.104;2024-01-15T03:52:17;3.90;99.90
8105;DHT22;4095;48.942;9.104;2024-01-15T03:54:42;3.90;99.90
8105;DHT22;4095;48.942;9.104;2024-01-15T03:57:08;3.90;99.90
8105;DHT22;4095;48.942;9.104;2024-01-15T03:59:33;3.90;99.90
8105;DHT22;4095;48.942;9.104;2024-01-15T04:01:59;3.90;99.90
8105;DHT22;4095;48.942;9.104;2024-01-15T04:04:24;3.80;99.90
8105;DHT22;4095;48.942;9.104;2024-01-15T04:06:50;3.70;99.90
8105;DHT22;4095;48.942;9.104;2024-01-15T04:09:15;3.80;99.90
8105;DHT22;4095;48.942;9.104;2024-01-15T04:11:41;3.90;99.90
8105;DHT22;4095;48.942;9.104;2024-01-15T04:14:06;3.90;99.90
8105;DHT22;4095;48.942;9.104;2024-01-15T04:16:32;4.00;99.90
8105;DHT22;4095;48.942;9.104;2024-01-15T04:18:57;4.00;99.90
8105;DHT22;4095;48.942;9.104;2024-01-15T04:21:23;4.00;99.90
8105;DHT22;4095;48.942;9.104;2024-01-15T04:23:49;4.00;99.90
8105;DHT22;4095;48.942;9.104;2024-01-15T04:26:14;4.00;99.90
8105;DHT22;4095;48.942;9.104;2024-01-15T04:28:40;4.10;99.90
8105;DHT22;4095;48.942;9.104;2024-01-15T04:31:06;4.20;99.90
8105;DHT22;4095;48.942;9.104;2024-01-15T04:33:31;4.20;99.90
8105;DHT22;4095;48.942;9.104;2024-01-15T04:35:57;4.30;99.90
8105;DHT22;4095;48.942;9.104;2024-01-15T04:38:26;4.30;99.90
8105;DHT22;4095;48.942;9.104;2024-01-15T04:40:51;4.40;99.80
8105;DHT22;4095;48.942;9.104;2024-01-15T04:43:17;4.40;99.70
8105;DHT22;4095;48.942;9.104;2024-01-15T04:45:43;4.40;99.60
8105;DHT22;4095;48.942;9.104;2024-01-15T04:48:08;4.50;99.70
8105;DHT22;4095;48.942;9.104;2024-01-15T04:50:34;4.40;99.70
8105;DHT22;4095;48.942;9.104;2024-01-15T04:52:59;4.30;99.60
8105;DHT22;4095;48.942;9.104;2024-01-15T04:55:25;4.30;99.70
8105;DHT22;4095;48.942;9.104;2024-01-15T04:57:50;4.20;99.80
8105;DHT22;4095;48.942;9.104;2024-01-15T05:00:16;4.20;99.90
8105;DHT22;4095;48.942;9.104;2024-01-15T05:02:41;4.30;99.90
8105;DHT22;4095;48.942;9.104;2024-01-15T05:05:07;4.40;99.90
8105;DHT22;4095;48.942;9.104;2024-01-15T05:07:33;4.30;99.90
8105;DHT22;4095;48.942;9.104;2024-01-15T05:09:58;4.30;99.80
8105;DHT22;4095;48.942;9.104;2024-01-15T05:12:24;4.40;99.90
8105;DHT22;4095;48.942;9.104;2024-01-15T05:14:49;4.50;99.90
8105;DHT22;4095;48.942;9.104;2024-01-15T05:17:14;4.50;99.80
8105;DHT22;4095;48.942;9.104;2024-01-15T05:19:40;4.60;99.80
8105;DHT22;4095;48.942;9.104;2024-01-15T05:22:05;4.70;99.60
8105;DHT22;4095;48.942;9.104;2024-01-15T05:24:31;4.60;99.50
8105;DHT22;4095;48.942;9.104;2024-01-15T05:26:56;4.60;99.60
8105;DHT22;4095;48.942;9.104;2024-01-15T05:29:22;4.60;99.70
8105;DHT22;4095;48.942;9.104;2024-01-15T05:31:48;4.70;99.70
8105;DHT22;4095;48.942;9.104;2024-01-15T05:34:13;4.70;99.50
8105;DHT22;4095;48.942;9.104;2024-01-15T05:36:39;4.60;99.40
8105;DHT22;4095;48.942;9.104;2024-01-15T05:39:04;4.40;99.40
8105;DHT22;4095;48.942;9.104;2024-01-15T05:41:30;4.30;99.60
8105;DHT22;4095;48.942;9.104;2024-01-15T05:43:56;4.30;99.70
8105;DHT22;4095;48.942;9.104;2024-01-15T05:46:21;4.40;99.80
8105;DHT22;4095;48.942;9.104;2024-01-15T05:48:47;4.40;99.70
8105;DHT22;4095;48.942;9.104;2024-01-15T05:51:12;4.40;99.70
8105;DHT22;4095;48.942;9.104;2024-01-15T05:53:38;4.40;99.70
8105;DHT22;4095;48.942;9.104;2024-01-15T05:56:05;4.40;99.60
8105;DHT22;4095;48.942;9.104;2024-01-15T05:58:31;4.50;99.60
8105;DHT22;4095;48.942;9.104;2024-01-15T06:00:56;4.50;99.60
8105;DHT22;4095;48.942;9.104;2024-01-15T06:03:22;4.50;99.50
8105;DHT22;4095;48.942;9.104;2024-01-15T06:05:47;4.60;99.50
8105;DHT22;4095;48.942;9.104;2024-01-15T06:08:13;4.70;99.40
8105;DHT22;4095;48.942;9.104;2024-01-15T06:10:40;4.70;99.30
8105;DHT22;4095;48.942;9.104;2024-01-15T06:13:05;4.80;99.30
8105;DHT22;4095;48.942;9.104;2024-01-15T06:15:31;4.80;99.20
8105;DHT22;4095;48.942;9.104;2024-01-15T06:17:56;4.90;99.20
8105;DHT22;4095;48.942;9.104;2024-01-15T06:20:22;4.90;99.10
8105;DHT22;4095;48.942;9.104;2024-01-15T06:22:47;4.90;99.10
8105;DHT22;4095;48.942;9.104;2024-01-15T06:25:13;4.90;99.00
8105;DHT22;4095;48.942;9.104;2024-01-15T06:27:38;4.90;99.10
8105;DHT22;4095;48.942;9.104;2024-01-15T06:30:04;5.00;99.10
8105;DHT22;4095;48.942;9.104;2024-01-15T06:32:30;5.00;99.10
8105;DHT22;4095;48.942;9.104;2024-01-15T06:34:56;5.10;99.00
8105;DHT22;4095;48.942;9.104;2024-01-15T06:37:21;5.00;98.90
8105;DHT22;4095;48.942;9.104;2024-01-15T06:39:47;5.00;98.90
8105;DHT22;4095;48.942;9.104;2024-01-15T06:42:13;5.00;98.90
8105;DHT22;4095;48.942;9.104;2024-01-15T06:44:38;5.00;99.00
8105;DHT22;4095;48.942;9.104;2024-01-15T06:47:05;5.00;99.00
8105;DHT22;4095;48.942;9.104;2024-01-15T06:49:30;5.00;99.00
8105;DHT22;4095;48.942;9.104;2024-01-15T06:51:56;5.00;99.00
8105;DHT22;4095;48.942;9.104;2024-01-15T06:54:22;5.00;99.00
8105;DHT22;4095;48.942;9.104;2024-01-15T06:56:49;5.00;99.00
8105;DHT22;4095;48.942;9.104;2024-01-15T06:59:14;5.10;99.20
8105;DHT22;4095;48.942;9.104;2024-01-15T07:01:40;5.10;98.80
8105;DHT22;4095;48.942;9.104;2024-01-15T07:04:06;5.00;98.70
8105;DHT22;4095;48.942;9.104;2024-01-15T07:06:31;5.00;98.80
8105;DHT22;4095;48.942;9.104;2024-01-15T07:08:57;5.00;98.80
8105;DHT22;4095;48.942;9.104;2024-01-15T07:11:23;5.10;98.70
8105;DHT22;4095;48.942;9.104;2024-01-15T07:13:48;5.10;98.70
8105;DHT22;4095;48.942;9.104;2024-01-15T07:16:14;5.20;98.70
8105;DHT22;4095;48.942;9.104;2024-01-15T07:18:40;5.20;98.60
8105;DHT22;4095;48.942;9.104;2024-01-15T07:21:06;5.20;98.70
8105;DHT22;4095;48.942;9.104;2024-01-15T07:23:32;5.30;98.70
8105;DHT22;4095;48.942;9.104;2024-01-15T07:25:57;5.20;98.50
8105;DHT22;4095;48.942;9.104;2024-01-15T07:28:23;5.20;98.50
8105;DHT22;4095;48.942;9.104;2024-01-15T07:30:48;5.20;98.60
8105;DHT22;4095;48.942;9.104;2024-01-15T07:33:14;5.20;99.00
8105;DHT22;4095;48.942;9.104;2024-01-15T07:35:40;5.20;98.60
8105;DHT22;4095;48.942;9.104;2024-01-15T07:38:05;5.30;98.60
8105;DHT22;4095;48.942;9.104;2024-01-15T07:40:31;5.30;98.60
8105;DHT22;4095;48.942;9.104;2024-01-15T07:42:56;5.30;98.60
8105;DHT22;4095;48.942;9.104;2024-01-15T07:45:22;5.30;98.70
8105;DHT22;4095;48.942;9.104;2024-01-15T07:47:47;5.20;98.70
8105;DHT22;4095;48.942;9.104;2024-01-15T07:50:13;5.20;98.80
8105;DHT22;4095;48.942;9.104;2024-01-15T07:52:40;5.20;98.80
8105;DHT22;4095;48.942;9.104;2024-01-15T07:55:07;5.20;98.80
8105;DHT22;4095;48.942;9.104;2024-01-15T07:57:33;5.20;98.90
8105;DHT22;4095;48.942;9.104;2024-01-15T07:59:58;5.20;99.00
8105;DHT22;4095;48.942;9.104;2024-01-15T08:02:24;5.20;99.00
8105;DHT22;4095;48.942;9.104;2024-01-15T08:04:49;5.30;99.00
8105;DHT22;4095;48.942;9.104;2024-01-15T08:07:15;5.30;99.00
8105;DHT22;4095;48.942;9.104;2024-01-15T08:09:41;5.40;99.00
8105;DHT22;4095;48.942;9.104;2024-01-15T08:12:07;5.50;99.00
8105;DHT22;4095;48.942;9.104;2024-01-15T08:14:33;5.50;99.00
8105;DHT22;4095;48.942;9.104;2024-01-15T08:16:59;5.50;98.90
8105;DHT22;4095;48.942;9.104;2024-01-15T08:19:24;5.50;98.90
8105;DHT22;4095;48.942;9.104;2024-01-15T08:21:50;5.50;98.90
8105;DHT22;4095;48.942;9.104;2024-01-15T08:24:15;5.50;98.80
8105;DHT22;4095;48.942;9.104;2024-01-15T08:26:42;5.50;98.70
8105;DHT22;4095;48.942;9.104;2024-01-15T08:29:07;5.50;98.30
8105;DHT22;4095;48.942;9.104;2024-01-15T08:31:33;5.50;98.30
8105;DHT22;4095;48.942;9.104;2024-01-15T08:33:59;5.50;98.40
8105;DHT22;4095;48.942;9.104;2024-01-15T08:36:25;5.50;98.30
8105;DHT22;4095;48.942;9.104;2024-01-15T08:38:50;5.50;98.30
8105;DHT22;4095;48.942;9.104;2024-01-15T08:41:16;5.50;98.30
8105;DHT22;4095;48.942;9.104;2024-01-15T08:43:41;5.50;98.20
8105;DHT22;4095;48.942;9.104;2024-01-15T08:46:07;5.50;98.30
8105;DHT22;4095;48.942;9.104;2024-01-15T08:48:34;5.50;98.20
8105;DHT22;4095;48.942;9.104;2024-01-15T08:50:59;5.60;98.20
8105;DHT22;4095;48.942;9.104;2024-01-15T08:53:25;5.60;98.00
8105;DHT22;4095;48.942;9.104;2024-01-15T08:55:51;5.60;98.10
8105;DHT22;4095;48.942;9.104;2024-01-15T08:58:16;5.60;98.10
8105;DHT22;4095;48.942;9.104;2024-01-15T09:00:43;5.70;98.10
8105;DHT22;4095;48.942;9.104;2024-01-15T09:03:08;5.70;97.90
8105;DHT22;4095;48.942;9.104;2024-01-15T09:05:34;5.60;98.00
8105;DHT22;4095;48.942;9.104;2024-01-15T09:08:00;5.60;97.90
8105;DHT22;4095;48.942;9.104;2024-01-15T09:10:25;5.60;97.80
8105;DHT22;4095;48.942;9.104;2024-01-15T09:12:51;5.60;97.70
8105;DHT22;4095;48.942;9.104;2024-01-15T09:15:16;5.60;97.50
8105;DHT22;4095;48.942;9.104;2024-01-15T09:17:42;5.60;97.50
8105;DHT22;4095;48.942;9.104;2024-01-15T09:20:10;5.60;97.40
8105;DHT22;4095;48.942;9.104;2024-01-15T09:22:38;5.70;97.30
8105;DHT22;4095;48.942;9.104;2024-01-15T09:25:06;5.70;97.10
8105;DHT22;4095;48.942;9.104;2024-01-15T09:27:31;5.80;97.10
8105;DHT22;4095;48.942;9.104;2024-01-15T09:29:58;5.80;97.00
8105;DHT22;4095;48.942;9.104;2024-01-15T09:32:23;5.80;97.00
8105;DHT22;4095;48.942;9.104;2024-01-15T09:34:49;5.90;96.90
8105;DHT22;4095;48.942;9.104;2024-01-15T09:37:14;5.90;96.80
8105;DHT22;4095;48.942;9.104;2024-01-15T09:39:40;5.80;96.90
8105;DHT22;4095;48.942;9.104;2024-01-15T09:42:06;5.80;97.00
8105;DHT22;4095;48.942;9.104;2024-01-15T09:44:33;5.70;97.00
8105;DHT22;4095;48.942;9.104;2024-01-15T09:46:58;5.70;96.90
8105;DHT22;4095;48.942;9.104;2024-01-15T09:49:24;5.60;97.00
8105;DHT22;4095;48.942;9.104;2024-01-15T09:51:51;5.70;97.20
8105;DHT22;4095;48.942;9.104;2024-01-15T09:54:16;5.70;97.10
8105;DHT22;4095;48.942;9.104;2024-01-15T09:56:48;5.70;97.40
8105;DHT22;4095;48.942;9.104;2024-01-15T09:59:18;5.80;97.20
8105;DHT22;4095;48.942;9.104;2024-01-15T10:01:44;5.80;97.20
8105;DHT22;4095;48.942;9.104;2024-01-15T10:04:13;5.80;97.10
8105;DHT22;4095;48.942;9.104;2024-01-15T10:06:42;5.90;97.00
8105;DHT22;4095;48.942;9.104;2024-01-15T10:09:14;5.90;96.90
8105;DHT22;4095;48.942;9.104;2024-01-15T10:11:44;5.90;96.80
8105;DHT22;4095;48.942;9.104;2024-01-15T10:14:13;5.80;97.00
8105;DHT22;4095;48.942;9.104;2024-01-15T10:16:39;5.80;96.90
8105;DHT22;4095;48.942;9.104;2024-01-15T10:19:05;5.80;96.90
8105;DHT22;4095;48.942;9.104;2024-01-15T10:21:34;5.80;96.80
8105;DHT22;4095;48.942;9.104;2024-01-15T10:24:01;5.80;96.80
8105;DHT22;4095;48.942;9.104;2024-01-15T10:26:27;5.90;96.90
8105;DHT22;4095;48.942;9.104;2024-01-15T10:28:52;5.90;96.80
8105;DHT22;4095;48.942;9.104;2024-01-15T10:31:18;6.00;96.80
8105;DHT22;4095;48.942;9.104;2024-01-15T10:33:45;6.10;96.90
8105;DHT22;4095;48.942;9.104;2024-01-15T10:36:10;6.10;96.80
8105;DHT22;4095;48.942;9.104;2024-01-15T10:38:39;6.00;96.50
8105;DHT22;4095;48.942;9.104;2024-01-15T10:41:04;6.00;96.50
8105;DHT22;4095;48.942;9.104;2024-01-15T10:43:30;6.00;96.80
8105;DHT22;4095;48.942;9.104;2024-01-15T10:45:55;6.10;96.80
8105;DHT22;4095;48.942;9.104;2024-01-15T10:48:21;6.20;96.80
8105;DHT22;4095;48.942;9.104;2024-01-15T10:50:47;6.10;96.80
8105;DHT22;4095;48.942;9.104;2024-01-15T10:53:15;6.10;97.00
8105;DHT22;4095;48.942;9.104;2024-01-15T10:55:41;6.00;97.40
8105;DHT22;4095;48.942;9.104;2024-01-15T10:58:08;5.90;97.80
8105;DHT22;4095;48.942;9.104;2024-01-15T11:00:35;5.80;98.40
8105;DHT22;4095;48.942;9.104;2024-01-15T11:03:03;5.70;98.70
8105;DHT22;4095;48.942;9.104;2024-01-15T11:05:34;5.70;99.30
8105;DHT22;4095;48.942;9.104;2024-01-15T11:08:01;5.60;99.80
8105;DHT22;4095;48.942;9.104;2024-01-15T11:10:46;5.50;99.90
8105;DHT22;4095;48.942;9.104;2024-01-15T11:13:22;5.40;99.90
8105;DHT22;4095;48.942;9.104;2024-01-15T11:16:09;5.20;99.90
8105;DHT22;4095;48.942;9.104;2024-01-15T11:18:37;5.00;99.90
8105;DHT22;4095;48.942;9.104;2024-01-15T11:23:45;5.00;99.90
8105;DHT22;4095;48.942;9.104;2024-01-15T11:26:44;5.00;99.90
8105;DHT22;4095;48.942;9.104;2024-01-15T11:29:29;5.00;99.90
8105;DHT22;4095;48.942;9.104;2024-01-15T11:34:21;5.00;99.90
8105;DHT22;4095;48.942;9.104;2024-01-15T11:41:57;5.20;99.90
8105;DHT22;4095;48.942;9.104;2024-01-15T11:44:23;5.20;99.90
8105;DHT22;4095;48.942;9.104;2024-01-15T11:47:09;5.30;99.90
8105;DHT22;4095;48.942;9.104;2024-01-15T11:52:11;5.40;99.90
8105;DHT22;4095;48.942;9.104;2024-01-15T11:54:38;5.40;99.90
8105;DHT22;4095;48.942;9.104;2024-01-15T11:57:09;5.30;99.90
8105;DHT22;4095;48.942;9.104;2024-01-15T11:59:35;5.20;99.90
8105;DHT22;4095;48.942;9.104;2024-01-15T12:02:01;5.30;99.90
8105;DHT22;4095;48.942;9.104;2024-01-15T12:04:27;5.20;99.90
8105;DHT22;4095;48.942;9.104;2024-01-15T12:06:53;5.20;99.90
8105;DHT22;4095;48.942;9.104;2024-01-15T12:09:21;5.20;99.90
8105;DHT22;4095;48.942;9.104;2024-01-15T12:11:53;5.20;99.90
8105;DHT22;4095;48.942;9.104;2024-01-15T12:14:21;5.20;99.90
8105;DHT22;4095;48.942;9.104;2024-01-15T12:16:47;5.20;99.90
8105;DHT22;4095;48.942;9.104;2024-01-15T12:19:15;5.20;99.90
8105;DHT22;4095;48.942;9.104;2024-01-15T12:21:40;5.10;99.90
8105;DHT22;4095;48.942;9.104;2024-01-15T12:24:07;5.20;99.90
8105;DHT22;4095;48.942;9.104;2024-01-15T12:26:33;5.20;99.90
8105;DHT22;4095;48.942;9.104;2024-01-15T12:29:02;5.10;99.90
8105;DHT22;4095;48.942;9.104;2024-01-15T12:31:27;5.10;99.90
8105;DHT22;4095;48.942;9.104;2024-01-15T12:33:53;5.10;99.90
8105;DHT22;4095;48.942;9.104;2024-01-15T12:36:21;5.10;99.90
8105;DHT22;4095;48.942;9.104;2024-01-15T12:38:47;5.10;99.90
8105;DHT22;4095;48.942;9.104;2024-01-15T12:41:13;5.10;99.90
8105;DHT22;4095;48.942;9.104;2024-01-15T12:43:38;5.10;99.90
8105;DHT22;4095;48.942;9.104;2024-01-15T12:46:05;5.10;99.90
8105;DHT22;4095;48.942;9.104;2024-01-15T12:48:31;5.00;99.90
8105;DHT22;4095;48.942;9.104;2024-01-15T12:50:57;4.90;99.90
8105;DHT22;4095;48.942;9.104;2024-01-15T12:53:22;4.90;99.90
8105;DHT22;4095;48.942;9.104;2024-01-15T12:55:48;4.90;99.90
8105;DHT22;4095;48.942;9.104;2024-01-15T12:58:13;4.90;99.90
8105;DHT22;4095;48.942;9.104;2024-01-15T13:00:39;4.90;99.90
8105;DHT22;4095;48.942;9.104;2024-01-15T13:03:05;4.90;99.90
8105;DHT22;4095;48.942;9.104;2024-01-15T13:05:32;4.90;99.90
8105;DHT22;4095;48.942;9.104;2024-01-15T13:07:58;4.90;99.90
8105;DHT22;4095;48.942;9.104;2024-01-15T13:10:24;4.90;99.90
8105;DHT22;4095;48.942;9.104;2024-01-15T13:12:50;4.90;99.90
8105;DHT22;4095;48.942;9.104;2024-01-15T13:15:16;4.90;99.90
8105;DHT22;4095;48.942;9.104;2024-01-15T13:17:42;4.90;99.90
8105;DHT22;4095;48.942;9.104;2024-01-15T13:20:08;4.80;99.90
8105;DHT22;4095;48.942;9.104;2024-01-15T13:22:34;4.70;99.90
8105;DHT22;4095;48.942;9.104;2024-01-15T13:25:00;4.70;99.90
8105;DHT22;4095;48.942;9.104;2024-01-15T13:27:25;4.60;99.90
8105;DHT22;4095;48.942;9.104;2024-01-15T13:29:51;4.70;99.90
8105;DHT22;4095;48.942;9.104;2024-01-15T13:32:24;4.70;99.90
8105;DHT22;4095;48.942;9.104;2024-01-15T13:34:55;4.80;99.90
8105;DHT22;4095;48.942;9.104;2024-01-15T13:37:20;4.80;99.90
8105;DHT22;4095;48.942;9.104;2024-01-15T13:39:46;4.80;99.90
8105;DHT22;4095;48.942;9.104;2024-01-15T13:42:12;4.80;99.90
8105;DHT22;4095;48.942;9.104;2024-01-15T13:44:37;4.80;99.90
8105;DHT22;4095;48.942;9.104;2024-01-15T13:47:03;4.80;99.90
8105;DHT22;4095;48.942;9.104;2024-01-15T13:49:30;4.80;99.90
8105;DHT22;4095;48.942;9.104;2024-01-15T13:51:56;4.80;99.90
8105;DHT22;4095;48.942;9.104;2024-01-15T13:54:21;4.90;99.90
8105;DHT22;4095;48.942;9.104;2024-01-15T13:56:47;4.90;99.90
8105;DHT22;4095;48.942;9.104;2024-01-15T13:59:12;4.90;99.90
8105;DHT22;4095;48.942;9.104;2024-01-15T14:01:38;4.90;99.90
8105;DHT22;4095;48.942;9.104;2024-01-15T14:04:04;5.00;99.90
8105;DHT22;4095;48.942;9.104;2024-01-15T14:06:29;5.00;99.90
8105;DHT22;4095;48.942;9.104;2024-01-15T14:08:55;4.90;99.90
8105;DHT22;4095;48.942;9.104;2024-01-15T14:11:20;5.00;99.90
8105;DHT22;4095;48.942;9.104;2024-01-15T14:13:46;4.90;99.90
8105;DHT22;4095;48.942;9.104;2024-01-15T14:16:12;4.90;99.90
8105;DHT22;4095;48.942;9.104;2024-01-15T14:18:38;5.00;99.90
8105;DHT22;4095;48.942;9.104;2024-01-15T14:21:04;5.00;99.90
8105;DHT22;4095;48.942;9.104;2024-01-15T14:23:29;4.90;99.90
8105;DHT22;4095;48.942;9.104;2024-01-15T14:25:56;4.90;99.90
8105;DHT22;4095;48.942;9.104;2024-01-15T14:28:21;4.90;99.90
8105;DHT22;4095;48.942;9.104;2024-01-15T14:30:48;4.80;99.90
8105;DHT22;4095;48.942;9.104;2024-01-15T14:33:14;4.90;99.90
8105;DHT22;4095;48.942;9.104;2024-01-15T14:35:39;4.80;99.90
8105;DHT22;4095;48.942;9.104;2024-01-15T14:38:05;4.80;99.90
8105;DHT22;4095;48.942;9.104;2024-01-15T14:40:31;4.80;99.90
8105;DHT22;4095;48.942;9.104;2024-01-15T14:42:56;4.70;99.90
8105;DHT22;4095;48.942;9.104;2024-01-15T14:45:22;4.70;99.90
8105;DHT22;4095;48.942;9.104;2024-01-15T14:47:48;4.70;99.90
8105;DHT22;4095;48.942;9.104;2024-01-15T14:50:14;4.80;99.90
8105;DHT22;4095;48.942;9.104;2024-01-15T14:52:39;4.80;99.90
8105;DHT22;4095;48.942;9.104;2024-01-15T14:55:07;4.80;99.90
8105;DHT22;4095;48.942;9.104;2024-01-15T14:57:34;4.70;99.90
8105;DHT22;4095;48.942;9.104;2024-01-15T14:59:59;4.80;99.90
8105;DHT22;4095;48.942;9.104;2024-01-15T15:02:25;4.80;99.90
8105;DHT22;4095;48.942;9.104;2024-01-15T15:04:53;4.80;99.90
8105;DHT22;4095;48.942;9.104;2024-01-15T15:07:21;4.80;99.90
8105;DHT22;4095;48.942;9.104;2024-01-15T15:09:47;4.80;99.90
8105;DHT22;4095;48.942;9.104;2024-01-15T15:12:16;4.80;99.90
8105;DHT22;4095;48.942;9.104;2024-01-15T15:14:42;4.70;99.90
8105;DHT22;4095;48.942;9.104;2024-01-15T15:17:08;4.60;99.90
8105;DHT22;4095;48.942;9.104;2024-01-15T15:19:35;4.50;99.90
8105;DHT22;4095;48.942;9.104;2024-01-15T15:22:01;4.50;99.90
8105;DHT22;4095;48.942;9.104;2024-01-15T15:24:26;4.50;99.90
8105;DHT22;4095;48.942;9.104;2024-01-15T15:26:52;4.40;99.90
8105;DHT22;4095;48.942;9.104;2024-01-15T15:29:18;4.50;99.90
8105;DHT22;4095;48.942;9.104;2024-01-15T15:31:44;4.50;99.90
8105;DHT22;4095;48.942;9.104;2024-01-15T15:34:09;4.50;99.90
8105;DHT22;4095;48.942;9.104;2024-01-15T15:36:35;4.60;99.90
8105;DHT22;4095;48.942;9.104;2024-01-15T15:39:01;4.60;99.90
8105;DHT22;4095;48.942;9.104;2024-01-15T15:41:26;4.60;99.90
8105;DHT22;4095;48.942;9.104;2024-01-15T15:43:54;4.60;99.90
8105;DHT22;4095;48.942;9.104;2024-01-15T15:46:19;4.70;99.90
8105;DHT22;4095;48.942;9.104;2024-01-15T15:48:45;4.60;99.90
8105;DHT22;4095;48.942;9.104;2024-01-15T15:51:10;4.70;99.90
8105;DHT22;4095;48.942;9.104;2024-01-15T15:53:36;4.70;99.90
8105;DHT22;4095;48.942;9.104;2024-01-15T15:56:01;4.50;99.90
8105;DHT22;4095;48.942;9.104;2024-01-15T15:58:27;4.50;99.90
8105;DHT22;4095;48.942;9.104;2024-01-15T16:00:52;4.50;99.90
8105;DHT22;4095;48.942;9.104;2024-01-15T16:03:18;4.40;99.90
8105;DHT22;4095;48.942;9.104;2024-01-15T16:05:44;4.40;99.90
8105;DHT22;4095;48.942;9.104;2024-01-15T16:08:10;4.50;99.90
8105;DHT22;4095;48.942;9.104;2024-01-15T16:10:35;4.50;99.90
8105;DHT22;4095;48.942;9.104;2024-01-15T16:13:01;4.50;99.90
8105;DHT22;4095;48.942;9.104;2024-01-15T16:15:27;4.30;99.90
8105;DHT22;4095;48.942;9.104;2024-01-15T16:17:53;4.20;99.90
8105;DHT22;4095;48.942;9.104;2024-01-15T16:20:19;4.20;99.90
8105;DHT22;4095;48.942;9.104;2024-01-15T16:22:45;4.20;99.90